sensor_id;sensor_type;location;lat;lon;timestamp;P1;durP1;ratioP1;P2;durP2;ratioP2
11709;SDS011;5911;51.036;6.972;2022-12-16T00:01:34;43.47;;;27.37;;
11709;SDS011;5911;51.036;6.972;2022-12-16T00:04:02;40.80;;;26.63;;
11709;SDS011;5911;51.036;6.972;2022-12-16T00:06:31;41.73;;;27.10;;
11709;SDS011;5911;51.036;6.972;2022-12-16T00:09:01;41.60;;;26.70;;
11709;SDS011;5911;51.036;6.972;2022-12-16T00:11:29;40.60;;;25.43;;
11709;SDS011;5911;51.036;6.972;2022-12-16T00:13:58;40.13;;;26.37;;
11709;SDS011;5911;51.036;6.972;2022-12-16T00:16:25;42.47;;;26.50;;
11709;SDS011;5911;51.036;6.972;2022-12-16T00:18:53;43.10;;;25.80;;
11709;SDS011;5911;51.036;6.972;2022-12-16T00:21:21;39.20;;;26.73;;
11709;SDS011;5911;51.036;6.972;2022-12-16T00:23:53;41.90;;;25.80;;
11709;SDS011;5911;51.036;6.972;2022-12-16T00:26:23;41.97;;;27.27;;
11709;SDS011;5911;51.036;6.972;2022-12-16T00:28:51;45.93;;;28.17;;
11709;SDS011;5911;51.036;6.972;2022-12-16T00:31:20;40.43;;;27.00;;
11709;SDS011;5911;51.036;6.972;2022-12-16T00:33:47;39.13;;;26.57;;
11709;SDS011;5911;51.036;6.972;2022-12-16T00:36:15;41.40;;;26.43;;
11709;SDS011;5911;51.036;6.972;2022-12-16T00:38:43;43.00;;;27.43;;
11709;SDS011;5911;51.036;6.972;2022-12-16T00:41:11;38.07;;;26.03;;
11709;SDS011;5911;51.036;6.972;2022-12-16T00:43:40;41.23;;;27.67;;
11709;SDS011;5911;51.036;6.972;2022-12-16T00:46:08;43.43;;;27.10;;
11709;SDS011;5911;51.036;6.972;2022-12-16T00:48:36;41.57;;;26.63;;
11709;SDS011;5911;51.036;6.972;2022-12-16T00:51:03;42.87;;;26.13;;
11709;SDS011;5911;51.036;6.972;2022-12-16T00:53:32;39.37;;;26.50;;
11709;SDS011;5911;51.036;6.972;2022-12-16T00:56:02;40.40;;;26.20;;
11709;SDS011;5911;51.036;6.972;2022-12-16T00:58:30;40.40;;;27.63;;
11709;SDS011;5911;51.036;6.972;2022-12-16T01:00:59;39.80;;;26.73;;
11709;SDS011;5911;51.036;6.972;2022-12-16T01:03:27;38.20;;;25.33;;
11709;SDS011;5911;51.036;6.972;2022-12-16T01:05:55;41.93;;;26.90;;
11709;SDS011;5911;51.036;6.972;2022-12-16T01:08:23;40.33;;;25.70;;
11709;SDS011;5911;51.036;6.972;2022-12-16T01:10:52;39.70;;;24.33;;
11709;SDS011;5911;51.036;6.972;2022-12-16T01:13:22;38.93;;;24.53;;
11709;SDS011;5911;51.036;6.972;2022-12-16T01:15:50;36.07;;;24.87;;
11709;SDS011;5911;51.036;6.972;2022-12-16T01:18:20;37.63;;;25.07;;
11709;SDS011;5911;51.036;6.972;2022-12-16T01:20:48;41.13;;;25.77;;
11709;SDS011;5911;51.036;6.972;2022-12-16T01:23:15;41.60;;;26.20;;
11709;SDS011;5911;51.036;6.972;2022-12-16T01:25:43;40.00;;;24.30;;
11709;SDS011;5911;51.036;6.972;2022-12-16T01:28:11;41.80;;;25.57;;
11709;SDS011;5911;51.036;6.972;2022-12-16T01:30:39;38.20;;;24.80;;
11709;SDS011;5911;51.036;6.972;2022-12-16T01:33:07;39.23;;;24.63;;
11709;SDS011;5911;51.036;6.972;2022-12-16T01:35:37;39.00;;;24.00;;
11709;SDS011;5911;51.036;6.972;2022-12-16T01:38:21;35.13;;;22.73;;
11709;SDS011;5911;51.036;6.972;2022-12-16T01:40:49;36.13;;;23.53;;
11709;SDS011;5911;51.036;6.972;2022-12-16T01:43:21;37.13;;;23.63;;
11709;SDS011;5911;51.036;6.972;2022-12-16T01:45:52;37.80;;;23.20;;
11709;SDS011;5911;51.036;6.972;2022-12-16T01:48:30;36.87;;;25.10;;
11709;SDS011;5911;51.036;6.972;2022-12-16T01:51:07;38.10;;;24.00;;
11709;SDS011;5911;51.036;6.972;2022-12-16T01:53:38;36.70;;;23.40;;
11709;SDS011;5911;51.036;6.972;2022-12-16T01:56:26;34.67;;;23.20;;
11709;SDS011;5911;51.036;6.972;2022-12-16T01:58:58;36.13;;;23.77;;
11709;SDS011;5911;51.036;6.972;2022-12-16T02:01:27;40.33;;;23.70;;
11709;SDS011;5911;51.036;6.972;2022-12-16T02:03:55;38.63;;;24.03;;
11709;SDS011;5911;51.036;6.972;2022-12-16T02:06:28;38.27;;;23.93;;
11709;SDS011;5911;51.036;6.972;2022-12-16T02:08:57;37.33;;;22.80;;
11709;SDS011;5911;51.036;6.972;2022-12-16T02:11:31;38.33;;;24.50;;
11709;SDS011;5911;51.036;6.972;2022-12-16T02:14:46;41.43;;;23.80;;
11709;SDS011;5911;51.036;6.972;2022-12-16T02:17:35;37.50;;;24.40;;
11709;SDS011;5911;51.036;6.972;2022-12-16T02:20:24;34.87;;;22.97;;
11709;SDS011;5911;51.036;6.972;2022-12-16T02:23:20;36.90;;;24.03;;
11709;SDS011;5911;51.036;6.972;2022-12-16T02:26:15;37.00;;;23.97;;
11709;SDS011;5911;51.036;6.972;2022-12-16T02:29:03;39.77;;;24.50;;
11709;SDS011;5911;51.036;6.972;2022-12-16T02:31:46;34.97;;;24.27;;
11709;SDS011;5911;51.036;6.972;2022-12-16T02:34:21;36.23;;;24.07;;
11709;SDS011;5911;51.036;6.972;2022-12-16T02:37:00;36.00;;;23.63;;
11709;SDS011;5911;51.036;6.972;2022-12-16T02:39:37;38.00;;;24.17;;
11709;SDS011;5911;51.036;6.972;2022-12-16T02:42:12;39.23;;;24.80;;
11709;SDS011;5911;51.036;6.972;2022-12-16T02:44:47;39.77;;;23.67;;
11709;SDS011;5911;51.036;6.972;2022-12-16T02:47:38;39.43;;;24.03;;
11709;SDS011;5911;51.036;6.972;2022-12-16T02:50:09;35.63;;;23.20;;
11709;SDS011;5911;51.036;6.972;2022-12-16T02:52:44;41.33;;;25.03;;
11709;SDS011;5911;51.036;6.972;2022-12-16T02:55:13;36.93;;;23.60;;
11709;SDS011;5911;51.036;6.972;2022-12-16T03:00:34;36.60;;;23.87;;
11709;SDS011;5911;51.036;6.972;2022-12-16T03:03:30;39.17;;;23.93;;
11709;SDS011;5911;51.036;6.972;2022-12-16T03:06:03;37.37;;;23.20;;
11709;SDS011;5911;51.036;6.972;2022-12-16T03:08:33;38.50;;;24.30;;
11709;SDS011;5911;51.036;6.972;2022-12-16T03:11:05;37.97;;;23.63;;
11709;SDS011;5911;51.036;6.972;2022-12-16T03:13:34;36.13;;;23.77;;
11709;SDS011;5911;51.036;6.972;2022-12-16T03:16:06;38.37;;;25.17;;
11709;SDS011;5911;51.036;6.972;2022-12-16T03:18:39;35.43;;;21.63;;
11709;SDS011;5911;51.036;6.972;2022-12-16T03:21:28;38.27;;;23.37;;
11709;SDS011;5911;51.036;6.972;2022-12-16T03:24:00;39.63;;;24.97;;
11709;SDS011;5911;51.036;6.972;2022-12-16T03:26:33;35.37;;;23.27;;
11709;SDS011;5911;51.036;6.972;2022-12-16T03:29:06;37.27;;;23.70;;
11709;SDS011;5911;51.036;6.972;2022-12-16T03:31:39;36.80;;;23.60;;
11709;SDS011;5911;51.036;6.972;2022-12-16T03:34:13;36.20;;;22.63;;
11709;SDS011;5911;51.036;6.972;2022-12-16T03:37:06;35.03;;;23.10;;
11709;SDS011;5911;51.036;6.972;2022-12-16T03:39:38;34.63;;;21.33;;
11709;SDS011;5911;51.036;6.972;2022-12-16T03:42:09;39.27;;;23.37;;
11709;SDS011;5911;51.036;6.972;2022-12-16T03:44:40;34.93;;;22.43;;
11709;SDS011;5911;51.036;6.972;2022-12-16T03:47:09;37.53;;;23.50;;
11709;SDS011;5911;51.036;6.972;2022-12-16T03:49:45;37.60;;;24.40;;
11709;SDS011;5911;51.036;6.972;2022-12-16T03:52:12;32.73;;;22.07;;
11709;SDS011;5911;51.036;6.972;2022-12-16T03:54:57;35.20;;;24.00;;
11709;SDS011;5911;51.036;6.972;2022-12-16T03:57:25;36.57;;;21.43;;
11709;SDS011;5911;51.036;6.972;2022-12-16T03:59:53;34.80;;;23.40;;
11709;SDS011;5911;51.036;6.972;2022-12-16T04:02:21;34.23;;;22.50;;
11709;SDS011;5911;51.036;6.972;2022-12-16T04:04:50;35.10;;;23.70;;
11709;SDS011;5911;51.036;6.972;2022-12-16T04:07:18;37.17;;;23.60;;
11709;SDS011;5911;51.036;6.972;2022-12-16T04:10:07;34.30;;;22.47;;
11709;SDS011;5911;51.036;6.972;2022-12-16T04:12:35;36.97;;;22.63;;
11709;SDS011;5911;51.036;6.972;2022-12-16T04:15:20;35.90;;;21.37;;
11709;SDS011;5911;51.036;6.972;2022-12-16T04:18:07;37.87;;;21.93;;
11709;SDS011;5911;51.036;6.972;2022-12-16T04:21:00;34.37;;;21.87;;
11709;SDS011;5911;51.036;6.972;2022-12-16T04:23:47;32.17;;;21.60;;
11709;SDS011;5911;51.036;6.972;2022-12-16T04:26:35;33.43;;;21.37;;
11709;SDS011;5911;51.036;6.972;2022-12-16T04:29:24;33.67;;;22.37;;
11709;SDS011;5911;51.036;6.972;2022-12-16T04:31:52;31.60;;;21.27;;
11709;SDS011;5911;51.036;6.972;2022-12-16T04:34:20;34.20;;;21.37;;
11709;SDS011;5911;51.036;6.972;2022-12-16T04:36:56;32.27;;;21.50;;
11709;SDS011;5911;51.036;6.972;2022-12-16T04:39:43;33.23;;;22.10;;
11709;SDS011;5911;51.036;6.972;2022-12-16T04:42:28;34.40;;;22.87;;
11709;SDS011;5911;51.036;6.972;2022-12-16T04:45:31;33.90;;;21.60;;
11709;SDS011;5911;51.036;6.972;2022-12-16T04:48:17;35.93;;;22.23;;
11709;SDS011;5911;51.036;6.972;2022-12-16T04:51:02;37.50;;;22.63;;
11709;SDS011;5911;51.036;6.972;2022-12-16T04:53:49;34.87;;;22.80;;
11709;SDS011;5911;51.036;6.972;2022-12-16T04:56:39;36.13;;;22.60;;
11709;SDS011;5911;51.036;6.972;2022-12-16T04:59:25;36.43;;;24.00;;
11709;SDS011;5911;51.036;6.972;2022-12-16T05:02:25;34.97;;;22.30;;
11709;SDS011;5911;51.036;6.972;2022-12-16T05:05:11;33.77;;;20.83;;
11709;SDS011;5911;51.036;6.972;2022-12-16T05:07:56;36.13;;;21.50;;
11709;SDS011;5911;51.036;6.972;2022-12-16T05:10:57;36.37;;;22.13;;
11709;SDS011;5911;51.036;6.972;2022-12-16T05:13:42;34.13;;;22.20;;
11709;SDS011;5911;51.036;6.972;2022-12-16T05:16:28;37.40;;;22.73;;
11709;SDS011;5911;51.036;6.972;2022-12-16T05:19:13;36.23;;;21.93;;
11709;SDS011;5911;51.036;6.972;2022-12-16T05:21:58;37.17;;;21.70;;
11709;SDS011;5911;51.036;6.972;2022-12-16T05:24:44;35.60;;;22.27;;
11709;SDS011;5911;51.036;6.972;2022-12-16T05:27:30;35.63;;;22.83;;
11709;SDS011;5911;51.036;6.972;2022-12-16T05:30:16;35.90;;;23.60;;
11709;SDS011;5911;51.036;6.972;2022-12-16T05:33:18;35.13;;;21.87;;
11709;SDS011;5911;51.036;6.972;2022-12-16T05:36:04;33.30;;;20.83;;
11709;SDS011;5911;51.036;6.972;2022-12-16T05:38:49;35.10;;;22.60;;
11709;SDS011;5911;51.036;6.972;2022-12-16T05:41:35;33.60;;;21.37;;
11709;SDS011;5911;51.036;6.972;2022-12-16T05:44:22;35.00;;;22.17;;
11709;SDS011;5911;51.036;6.972;2022-12-16T05:47:08;33.83;;;21.43;;
11709;SDS011;5911;51.036;6.972;2022-12-16T05:49:54;35.07;;;23.00;;
11709;SDS011;5911;51.036;6.972;2022-12-16T05:52:40;37.63;;;22.17;;
11709;SDS011;5911;51.036;6.972;2022-12-16T05:55:25;35.17;;;22.20;;
11709;SDS011;5911;51.036;6.972;2022-12-16T05:58:10;40.07;;;23.13;;
11709;SDS011;5911;51.036;6.972;2022-12-16T06:00:57;33.67;;;21.67;;
11709;SDS011;5911;51.036;6.972;2022-12-16T06:03:42;33.47;;;21.80;;
11709;SDS011;5911;51.036;6.972;2022-12-16T06:06:28;37.97;;;21.33;;
11709;SDS011;5911;51.036;6.972;2022-12-16T06:09:13;34.73;;;22.20;;
11709;SDS011;5911;51.036;6.972;2022-12-16T06:11:58;35.30;;;21.87;;
11709;SDS011;5911;51.036;6.972;2022-12-16T06:14:43;37.93;;;23.70;;
11709;SDS011;5911;51.036;6.972;2022-12-16T06:17:30;32.20;;;21.60;;
11709;SDS011;5911;51.036;6.972;2022-12-16T06:20:15;34.40;;;21.47;;
11709;SDS011;5911;51.036;6.972;2022-12-16T06:23:00;37.43;;;22.73;;
11709;SDS011;5911;51.036;6.972;2022-12-16T06:25:50;38.30;;;22.40;;
11709;SDS011;5911;51.036;6.972;2022-12-16T06:28:36;34.40;;;21.47;;
11709;SDS011;5911;51.036;6.972;2022-12-16T06:31:21;34.47;;;22.53;;
11709;SDS011;5911;51.036;6.972;2022-12-16T06:34:08;35.67;;;22.60;;
11709;SDS011;5911;51.036;6.972;2022-12-16T06:36:53;38.40;;;22.87;;
11709;SDS011;5911;51.036;6.972;2022-12-16T06:39:38;35.20;;;23.03;;
11709;SDS011;5911;51.036;6.972;2022-12-16T06:42:23;36.53;;;23.37;;
11709;SDS011;5911;51.036;6.972;2022-12-16T06:45:09;41.87;;;29.13;;
11709;SDS011;5911;51.036;6.972;2022-12-16T06:48:00;38.30;;;23.53;;
11709;SDS011;5911;51.036;6.972;2022-12-16T06:50:46;36.47;;;22.53;;
11709;SDS011;5911;51.036;6.972;2022-12-16T06:53:31;33.63;;;22.07;;
11709;SDS011;5911;51.036;6.972;2022-12-16T06:56:17;34.87;;;22.33;;
11709;SDS011;5911;51.036;6.972;2022-12-16T06:59:02;35.37;;;22.10;;
11709;SDS011;5911;51.036;6.972;2022-12-16T07:01:47;35.90;;;22.93;;
11709;SDS011;5911;51.036;6.972;2022-12-16T07:04:32;36.70;;;22.40;;
11709;SDS011;5911;51.036;6.972;2022-12-16T07:07:19;38.93;;;23.27;;
11709;SDS011;5911;51.036;6.972;2022-12-16T07:10:04;33.37;;;21.70;;
11709;SDS011;5911;51.036;6.972;2022-12-16T07:12:50;36.27;;;22.17;;
11709;SDS011;5911;51.036;6.972;2022-12-16T07:15:35;36.47;;;22.77;;
11709;SDS011;5911;51.036;6.972;2022-12-16T07:18:21;35.47;;;21.97;;
11709;SDS011;5911;51.036;6.972;2022-12-16T07:21:06;40.57;;;22.00;;
11709;SDS011;5911;51.036;6.972;2022-12-16T07:23:52;37.63;;;22.87;;
11709;SDS011;5911;51.036;6.972;2022-12-16T07:26:38;35.00;;;20.80;;
11709;SDS011;5911;51.036;6.972;2022-12-16T07:29:23;33.13;;;22.33;;
11709;SDS011;5911;51.036;6.972;2022-12-16T07:32:08;34.80;;;21.10;;
11709;SDS011;5911;51.036;6.972;2022-12-16T07:34:53;33.40;;;21.70;;
11709;SDS011;5911;51.036;6.972;2022-12-16T07:37:39;32.53;;;20.87;;
11709;SDS011;5911;51.036;6.972;2022-12-16T07:40:26;34.20;;;22.00;;
11709;SDS011;5911;51.036;6.972;2022-12-16T07:43:11;37.93;;;23.13;;
11709;SDS011;5911;51.036;6.972;2022-12-16T07:45:57;42.67;;;22.10;;
11709;SDS011;5911;51.036;6.972;2022-12-16T07:48:42;36.53;;;22.90;;
11709;SDS011;5911;51.036;6.972;2022-12-16T07:51:33;36.63;;;23.27;;
11709;SDS011;5911;51.036;6.972;2022-12-16T07:54:18;37.60;;;22.37;;
11709;SDS011;5911;51.036;6.972;2022-12-16T07:57:05;35.50;;;22.77;;
11709;SDS011;5911;51.036;6.972;2022-12-16T07:59:50;39.60;;;22.90;;
11709;SDS011;5911;51.036;6.972;2022-12-16T08:02:38;35.20;;;21.97;;
11709;SDS011;5911;51.036;6.972;2022-12-16T08:05:24;39.43;;;23.67;;
11709;SDS011;5911;51.036;6.972;2022-12-16T08:08:09;43.97;;;23.57;;
11709;SDS011;5911;51.036;6.972;2022-12-16T08:10:54;38.73;;;22.47;;
11709;SDS011;5911;51.036;6.972;2022-12-16T08:13:41;40.80;;;22.93;;
11709;SDS011;5911;51.036;6.972;2022-12-16T08:16:26;36.70;;;23.67;;
11709;SDS011;5911;51.036;6.972;2022-12-16T08:19:12;39.43;;;23.30;;
11709;SDS011;5911;51.036;6.972;2022-12-16T08:21:57;33.53;;;23.00;;
11709;SDS011;5911;51.036;6.972;2022-12-16T08:24:53;39.27;;;23.77;;
11709;SDS011;5911;51.036;6.972;2022-12-16T08:27:39;42.70;;;22.77;;
11709;SDS011;5911;51.036;6.972;2022-12-16T08:30:25;40.67;;;24.27;;
11709;SDS011;5911;51.036;6.972;2022-12-16T08:33:11;36.03;;;21.30;;
11709;SDS011;5911;51.036;6.972;2022-12-16T08:35:56;40.77;;;24.00;;
11709;SDS011;5911;51.036;6.972;2022-12-16T08:38:56;36.90;;;22.37;;
11709;SDS011;5911;51.036;6.972;2022-12-16T08:41:47;40.40;;;22.63;;
11709;SDS011;5911;51.036;6.972;2022-12-16T08:44:32;37.73;;;22.90;;
11709;SDS011;5911;51.036;6.972;2022-12-16T08:47:19;33.63;;;22.87;;
11709;SDS011;5911;51.036;6.972;2022-12-16T08:50:05;35.57;;;21.97;;
11709;SDS011;5911;51.036;6.972;2022-12-16T08:52:51;31.73;;;20.87;;
11709;SDS011;5911;51.036;6.972;2022-12-16T08:55:36;33.83;;;21.00;;
11709;SDS011;5911;51.036;6.972;2022-12-16T08:58:21;31.90;;;20.80;;
11709;SDS011;5911;51.036;6.972;2022-12-16T09:01:20;35.00;;;20.47;;
11709;SDS011;5911;51.036;6.972;2022-12-16T09:04:07;35.93;;;21.10;;
11709;SDS011;5911;51.036;6.972;2022-12-16T09:06:53;34.20;;;20.93;;
11709;SDS011;5911;51.036;6.972;2022-12-16T09:09:38;37.77;;;21.93;;
11709;SDS011;5911;51.036;6.972;2022-12-16T09:12:23;35.10;;;21.30;;
11709;SDS011;5911;51.036;6.972;2022-12-16T09:15:08;36.53;;;21.63;;
11709;SDS011;5911;51.036;6.972;2022-12-16T09:17:54;39.40;;;23.73;;
11709;SDS011;5911;51.036;6.972;2022-12-16T09:20:38;35.33;;;21.67;;
11709;SDS011;5911;51.036;6.972;2022-12-16T09:23:23;37.43;;;22.80;;
11709;SDS011;5911;51.036;6.972;2022-12-16T09:26:08;34.03;;;22.67;;
11709;SDS011;5911;51.036;6.972;2022-12-16T09:28:54;39.90;;;22.50;;
11709;SDS011;5911;51.036;6.972;2022-12-16T09:31:39;43.87;;;23.40;;
11709;SDS011;5911;51.036;6.972;2022-12-16T09:34:24;44.90;;;23.67;;
11709;SDS011;5911;51.036;6.972;2022-12-16T09:37:11;44.17;;;25.23;;
11709;SDS011;5911;51.036;6.972;2022-12-16T09:39:56;51.50;;;27.50;;
11709;SDS011;5911;51.036;6.972;2022-12-16T09:42:44;49.30;;;25.87;;
11709;SDS011;5911;51.036;6.972;2022-12-16T09:45:36;45.53;;;26.47;;
11709;SDS011;5911;51.036;6.972;2022-12-16T09:48:28;51.13;;;27.00;;
11709;SDS011;5911;51.036;6.972;2022-12-16T09:51:19;50.23;;;27.50;;
11709;SDS011;5911;51.036;6.972;2022-12-16T09:54:07;45.53;;;27.30;;
11709;SDS011;5911;51.036;6.972;2022-12-16T09:56:56;52.63;;;27.43;;
11709;SDS011;5911;51.036;6.972;2022-12-16T09:59:43;48.37;;;26.83;;
11709;SDS011;5911;51.036;6.972;2022-12-16T10:02:33;50.03;;;26.87;;
11709;SDS011;5911;51.036;6.972;2022-12-16T10:05:29;52.10;;;27.23;;
11709;SDS011;5911;51.036;6.972;2022-12-16T10:08:21;51.33;;;27.33;;
11709;SDS011;5911;51.036;6.972;2022-12-16T10:11:15;47.90;;;26.30;;
11709;SDS011;5911;51.036;6.972;2022-12-16T10:14:06;52.47;;;28.13;;
11709;SDS011;5911;51.036;6.972;2022-12-16T10:16:58;48.97;;;26.07;;
11709;SDS011;5911;51.036;6.972;2022-12-16T10:19:53;46.77;;;26.40;;
11709;SDS011;5911;51.036;6.972;2022-12-16T10:22:46;51.10;;;27.93;;
11709;SDS011;5911;51.036;6.972;2022-12-16T10:25:42;51.87;;;28.37;;
11709;SDS011;5911;51.036;6.972;2022-12-16T10:28:39;50.83;;;27.63;;
11709;SDS011;5911;51.036;6.972;2022-12-16T10:31:29;48.80;;;27.93;;
11709;SDS011;5911;51.036;6.972;2022-12-16T10:34:15;56.27;;;29.23;;
11709;SDS011;5911;51.036;6.972;2022-12-16T10:37:04;49.43;;;28.00;;
11709;SDS011;5911;51.036;6.972;2022-12-16T10:39:52;59.20;;;28.90;;
11709;SDS011;5911;51.036;6.972;2022-12-16T10:42:43;47.67;;;27.57;;
11709;SDS011;5911;51.036;6.972;2022-12-16T10:45:35;56.97;;;30.30;;
11709;SDS011;5911;51.036;6.972;2022-12-16T10:48:26;53.43;;;28.80;;
11709;SDS011;5911;51.036;6.972;2022-12-16T10:51:22;55.57;;;28.47;;
11709;SDS011;5911;51.036;6.972;2022-12-16T10:54:21;55.73;;;30.20;;
11709;SDS011;5911;51.036;6.972;2022-12-16T10:57:13;54.07;;;29.63;;
11709;SDS011;5911;51.036;6.972;2022-12-16T11:00:09;57.67;;;28.83;;
11709;SDS011;5911;51.036;6.972;2022-12-16T11:03:09;50.97;;;28.90;;
11709;SDS011;5911;51.036;6.972;2022-12-16T11:06:01;53.60;;;28.53;;
11709;SDS011;5911;51.036;6.972;2022-12-16T11:08:47;49.90;;;27.93;;
11709;SDS011;5911;51.036;6.972;2022-12-16T11:11:32;59.27;;;29.50;;
11709;SDS011;5911;51.036;6.972;2022-12-16T11:14:21;51.23;;;28.70;;
11709;SDS011;5911;51.036;6.972;2022-12-16T11:17:29;60.03;;;31.20;;
11709;SDS011;5911;51.036;6.972;2022-12-16T11:20:13;49.50;;;28.03;;
11709;SDS011;5911;51.036;6.972;2022-12-16T11:23:07;55.87;;;29.13;;
11709;SDS011;5911;51.036;6.972;2022-12-16T11:26:04;51.57;;;30.23;;
11709;SDS011;5911;51.036;6.972;2022-12-16T11:29:02;49.17;;;28.40;;
11709;SDS011;5911;51.036;6.972;2022-12-16T11:31:57;54.50;;;29.37;;
11709;SDS011;5911;51.036;6.972;2022-12-16T11:34:48;52.10;;;31.33;;
11709;SDS011;5911;51.036;6.972;2022-12-16T11:37:39;50.80;;;30.27;;
11709;SDS011;5911;51.036;6.972;2022-12-16T11:40:25;54.17;;;29.50;;
11709;SDS011;5911;51.036;6.972;2022-12-16T11:43:14;54.63;;;31.07;;
11709;SDS011;5911;51.036;6.972;2022-12-16T11:46:02;51.17;;;28.53;;
11709;SDS011;5911;51.036;6.972;2022-12-16T11:48:54;49.50;;;27.80;;
11709;SDS011;5911;51.036;6.972;2022-12-16T11:51:52;53.00;;;29.40;;
11709;SDS011;5911;51.036;6.972;2022-12-16T11:55:03;47.70;;;26.83;;
11709;SDS011;5911;51.036;6.972;2022-12-16T11:58:17;51.30;;;28.90;;
11709;SDS011;5911;51.036;6.972;2022-12-16T12:01:09;51.43;;;29.33;;
11709;SDS011;5911;51.036;6.972;2022-12-16T12:03:59;48.23;;;27.87;;
11709;SDS011;5911;51.036;6.972;2022-12-16T12:06:52;45.30;;;28.77;;
11709;SDS011;5911;51.036;6.972;2022-12-16T12:09:48;45.47;;;28.23;;
11709;SDS011;5911;51.036;6.972;2022-12-16T12:12:44;54.73;;;30.20;;
11709;SDS011;5911;51.036;6.972;2022-12-16T12:15:35;46.93;;;29.20;;
11709;SDS011;5911;51.036;6.972;2022-12-16T12:18:31;51.13;;;28.70;;
11709;SDS011;5911;51.036;6.972;2022-12-16T12:21:27;44.10;;;29.03;;
11709;SDS011;5911;51.036;6.972;2022-12-16T12:24:22;52.17;;;29.73;;
11709;SDS011;5911;51.036;6.972;2022-12-16T12:27:24;50.20;;;29.30;;
11709;SDS011;5911;51.036;6.972;2022-12-16T12:30:21;47.00;;;29.40;;
11709;SDS011;5911;51.036;6.972;2022-12-16T12:33:17;49.20;;;29.10;;
11709;SDS011;5911;51.036;6.972;2022-12-16T12:36:11;50.70;;;30.43;;
11709;SDS011;5911;51.036;6.972;2022-12-16T12:39:08;45.57;;;28.47;;
11709;SDS011;5911;51.036;6.972;2022-12-16T12:42:05;51.07;;;30.57;;
11709;SDS011;5911;51.036;6.972;2022-12-16T12:45:08;50.07;;;29.53;;
11709;SDS011;5911;51.036;6.972;2022-12-16T12:48:08;52.83;;;29.70;;
11709;SDS011;5911;51.036;6.972;2022-12-16T12:51:00;54.77;;;33.07;;
11709;SDS011;5911;51.036;6.972;2022-12-16T12:53:53;57.20;;;32.50;;
11709;SDS011;5911;51.036;6.972;2022-12-16T12:56:47;52.30;;;32.63;;
11709;SDS011;5911;51.036;6.972;2022-12-16T12:59:40;49.73;;;31.63;;
11709;SDS011;5911;51.036;6.972;2022-12-16T13:02:38;54.53;;;32.43;;
11709;SDS011;5911;51.036;6.972;2022-12-16T13:05:32;54.90;;;32.00;;
11709;SDS011;5911;51.036;6.972;2022-12-16T13:08:31;54.60;;;32.83;;
11709;SDS011;5911;51.036;6.972;2022-12-16T13:11:23;54.63;;;31.53;;
11709;SDS011;5911;51.036;6.972;2022-12-16T13:17:27;49.77;;;29.93;;
11709;SDS011;5911;51.036;6.972;2022-12-16T13:20:34;47.70;;;29.10;;
11709;SDS011;5911;51.036;6.972;2022-12-16T13:23:30;48.80;;;29.70;;
11709;SDS011;5911;51.036;6.972;2022-12-16T13:26:17;43.93;;;28.90;;
11709;SDS011;5911;51.036;6.972;2022-12-16T13:29:05;47.70;;;28.43;;
11709;SDS011;5911;51.036;6.972;2022-12-16T13:32:01;51.97;;;27.87;;
11709;SDS011;5911;51.036;6.972;2022-12-16T13:35:13;46.27;;;28.47;;
11709;SDS011;5911;51.036;6.972;2022-12-16T13:38:19;55.00;;;33.40;;
11709;SDS011;5911;51.036;6.972;2022-12-16T13:41:08;54.10;;;31.60;;
11709;SDS011;5911;51.036;6.972;2022-12-16T13:50:44;63.97;;;35.00;;
11709;SDS011;5911;51.036;6.972;2022-12-16T13:53:47;62.87;;;36.20;;
11709;SDS011;5911;51.036;6.972;2022-12-16T13:56:39;69.27;;;37.47;;
11709;SDS011;5911;51.036;6.972;2022-12-16T13:59:29;63.87;;;36.43;;
11709;SDS011;5911;51.036;6.972;2022-12-16T14:02:18;69.27;;;37.07;;
11709;SDS011;5911;51.036;6.972;2022-12-16T14:05:16;61.37;;;34.53;;
11709;SDS011;5911;51.036;6.972;2022-12-16T14:08:04;66.50;;;37.47;;
11709;SDS011;5911;51.036;6.972;2022-12-16T14:10:57;60.37;;;33.83;;
11709;SDS011;5911;51.036;6.972;2022-12-16T14:13:46;66.53;;;33.73;;
11709;SDS011;5911;51.036;6.972;2022-12-16T14:16:44;64.07;;;33.93;;
11709;SDS011;5911;51.036;6.972;2022-12-16T14:19:37;60.33;;;34.00;;
11709;SDS011;5911;51.036;6.972;2022-12-16T14:22:50;65.67;;;36.17;;
11709;SDS011;5911;51.036;6.972;2022-12-16T14:26:01;61.40;;;32.93;;
11709;SDS011;5911;51.036;6.972;2022-12-16T14:28:47;66.40;;;32.67;;
11709;SDS011;5911;51.036;6.972;2022-12-16T14:31:34;60.83;;;33.23;;
11709;SDS011;5911;51.036;6.972;2022-12-16T14:34:24;57.13;;;31.93;;
11709;SDS011;5911;51.036;6.972;2022-12-16T14:37:11;62.60;;;34.53;;
11709;SDS011;5911;51.036;6.972;2022-12-16T14:39:58;65.83;;;33.37;;
11709;SDS011;5911;51.036;6.972;2022-12-16T14:45:38;57.97;;;30.37;;
11709;SDS011;5911;51.036;6.972;2022-12-16T14:48:33;60.57;;;31.17;;
11709;SDS011;5911;51.036;6.972;2022-12-16T14:51:24;53.63;;;30.60;;
11709;SDS011;5911;51.036;6.972;2022-12-16T14:54:18;61.57;;;32.43;;
11709;SDS011;5911;51.036;6.972;2022-12-16T14:57:12;56.63;;;31.30;;
11709;SDS011;5911;51.036;6.972;2022-12-16T15:00:09;52.00;;;29.23;;
11709;SDS011;5911;51.036;6.972;2022-12-16T15:02:58;56.23;;;30.20;;
11709;SDS011;5911;51.036;6.972;2022-12-16T15:05:49;53.77;;;28.90;;
11709;SDS011;5911;51.036;6.972;2022-12-16T15:08:39;53.73;;;28.93;;
11709;SDS011;5911;51.036;6.972;2022-12-16T15:11:35;54.93;;;28.87;;
11709;SDS011;5911;51.036;6.972;2022-12-16T15:14:23;50.73;;;27.00;;
11709;SDS011;5911;51.036;6.972;2022-12-16T15:17:18;52.67;;;28.33;;
11709;SDS011;5911;51.036;6.972;2022-12-16T15:20:12;57.00;;;30.07;;
11709;SDS011;5911;51.036;6.972;2022-12-16T15:23:01;65.10;;;32.90;;
11709;SDS011;5911;51.036;6.972;2022-12-16T15:25:49;56.30;;;30.27;;
11709;SDS011;5911;51.036;6.972;2022-12-16T15:28:39;59.40;;;30.73;;
11709;SDS011;5911;51.036;6.972;2022-12-16T15:31:30;56.67;;;29.33;;
11709;SDS011;5911;51.036;6.972;2022-12-16T15:34:22;58.43;;;29.40;;
11709;SDS011;5911;51.036;6.972;2022-12-16T15:37:14;54.23;;;28.47;;
11709;SDS011;5911;51.036;6.972;2022-12-16T15:40:14;51.50;;;27.17;;
11709;SDS011;5911;51.036;6.972;2022-12-16T15:43:04;53.07;;;27.13;;
11709;SDS011;5911;51.036;6.972;2022-12-16T15:45:49;50.23;;;27.17;;
11709;SDS011;5911;51.036;6.972;2022-12-16T15:48:36;57.97;;;27.03;;
11709;SDS011;5911;51.036;6.972;2022-12-16T15:51:27;51.03;;;27.10;;
11709;SDS011;5911;51.036;6.972;2022-12-16T15:54:15;52.03;;;26.80;;
11709;SDS011;5911;51.036;6.972;2022-12-16T15:57:01;50.20;;;27.03;;
11709;SDS011;5911;51.036;6.972;2022-12-16T15:59:51;53.03;;;27.83;;
11709;SDS011;5911;51.036;6.972;2022-12-16T16:02:44;68.13;;;31.63;;
11709;SDS011;5911;51.036;6.972;2022-12-16T16:05:31;61.63;;;30.13;;
11709;SDS011;5911;51.036;6.972;2022-12-16T16:08:20;65.13;;;29.73;;
11709;SDS011;5911;51.036;6.972;2022-12-16T16:11:06;67.27;;;32.90;;
11709;SDS011;5911;51.036;6.972;2022-12-16T16:13:52;71.60;;;31.97;;
11709;SDS011;5911;51.036;6.972;2022-12-16T16:16:40;65.70;;;30.40;;
11709;SDS011;5911;51.036;6.972;2022-12-16T16:19:25;65.30;;;30.80;;
11709;SDS011;5911;51.036;6.972;2022-12-16T16:22:11;60.47;;;27.37;;
11709;SDS011;5911;51.036;6.972;2022-12-16T16:24:59;51.80;;;23.63;;
11709;SDS011;5911;51.036;6.972;2022-12-16T16:27:45;57.07;;;27.47;;
11709;SDS011;5911;51.036;6.972;2022-12-16T16:30:30;60.33;;;27.90;;
11709;SDS011;5911;51.036;6.972;2022-12-16T16:33:16;66.67;;;28.50;;
11709;SDS011;5911;51.036;6.972;2022-12-16T16:36:05;61.87;;;27.80;;